sensor_id;sensor_type;location;lat;lon;timestamp;P1;durP1;ratioP1;P2;durP2;ratioP2
9972;SDS011;5027;53.560;10.062;2023-09-19T00:00:35;2.47;;;2.13;;
9972;SDS011;5027;53.560;10.062;2023-09-19T00:03:02;3.13;;;2.10;;
9972;SDS011;5027;53.560;10.062;2023-09-19T00:05:33;3.37;;;1.90;;
9972;SDS011;5027;53.560;10.062;2023-09-19T00:08:01;3.40;;;1.80;;
9972;SDS011;5027;53.560;10.062;2023-09-19T00:10:31;5.87;;;1.80;;
9972;SDS011;5027;53.560;10.062;2023-09-19T00:13:04;4.63;;;2.40;;
9972;SDS011;5027;53.560;10.062;2023-09-19T00:15:38;2.83;;;2.23;;
9972;SDS011;5027;53.560;10.062;2023-09-19T00:18:16;2.77;;;1.90;;
9972;SDS011;5027;53.560;10.062;2023-09-19T00:20:46;3.57;;;2.20;;
9972;SDS011;5027;53.560;10.062;2023-09-19T00:23:18;2.97;;;2.07;;
9972;SDS011;5027;53.560;10.062;2023-09-19T00:25:46;3.23;;;2.30;;
9972;SDS011;5027;53.560;10.062;2023-09-19T00:28:13;2.90;;;2.20;;
9972;SDS011;5027;53.560;10.062;2023-09-19T00:30:42;2.57;;;2.17;;
9972;SDS011;5027;53.560;10.062;2023-09-19T00:33:10;6.40;;;2.57;;
9972;SDS011;5027;53.560;10.062;2023-09-19T00:35:48;3.30;;;2.10;;
9972;SDS011;5027;53.560;10.062;2023-09-19T00:38:16;4.80;;;2.43;;
9972;SDS011;5027;53.560;10.062;2023-09-19T00:40:47;4.80;;;2.27;;
9972;SDS011;5027;53.560;10.062;2023-09-19T00:43:14;5.73;;;2.33;;
9972;SDS011;5027;53.560;10.062;2023-09-19T00:45:42;3.67;;;2.40;;
9972;SDS011;5027;53.560;10.062;2023-09-19T00:48:11;5.73;;;2.60;;
9972;SDS011;5027;53.560;10.062;2023-09-19T00:50:38;4.33;;;2.23;;
9972;SDS011;5027;53.560;10.062;2023-09-19T00:53:08;4.97;;;2.20;;
9972;SDS011;5027;53.560;10.062;2023-09-19T00:55:36;7.80;;;2.30;;
9972;SDS011;5027;53.560;10.062;2023-09-19T00:58:10;4.17;;;2.70;;
9972;SDS011;5027;53.560;10.062;2023-09-19T01:00:38;4.90;;;2.73;;
9972;SDS011;5027;53.560;10.062;2023-09-19T01:03:06;4.97;;;2.63;;
9972;SDS011;5027;53.560;10.062;2023-09-19T01:05:33;4.07;;;2.40;;
9972;SDS011;5027;53.560;10.062;2023-09-19T01:08:00;5.90;;;3.13;;
9972;SDS011;5027;53.560;10.062;2023-09-19T01:10:27;3.63;;;2.57;;
9972;SDS011;5027;53.560;10.062;2023-09-19T01:13:05;4.03;;;2.53;;
9972;SDS011;5027;53.560;10.062;2023-09-19T01:21:05;5.20;;;2.50;;
9972;SDS011;5027;53.560;10.062;2023-09-19T01:23:55;4.27;;;2.80;;
9972;SDS011;5027;53.560;10.062;2023-09-19T01:29:48;3.97;;;2.53;;
9972;SDS011;5027;53.560;10.062;2023-09-19T01:32:16;3.70;;;2.93;;
9972;SDS011;5027;53.560;10.062;2023-09-19T01:34:49;4.10;;;2.90;;
9972;SDS011;5027;53.560;10.062;2023-09-19T01:37:20;4.23;;;2.73;;
9972;SDS011;5027;53.560;10.062;2023-09-19T01:39:52;4.87;;;2.80;;
9972;SDS011;5027;53.560;10.062;2023-09-19T01:47:49;5.53;;;2.67;;
9972;SDS011;5027;53.560;10.062;2023-09-19T01:50:38;3.10;;;2.60;;
9972;SDS011;5027;53.560;10.062;2023-09-19T01:53:12;4.67;;;2.93;;
9972;SDS011;5027;53.560;10.062;2023-09-19T01:55:51;5.20;;;2.70;;
9972;SDS011;5027;53.560;10.062;2023-09-19T01:58:35;4.60;;;2.67;;
9972;SDS011;5027;53.560;10.062;2023-09-19T02:01:09;4.50;;;2.57;;
9972;SDS011;5027;53.560;10.062;2023-09-19T02:03:40;5.30;;;3.10;;
9972;SDS011;5027;53.560;10.062;2023-09-19T02:06:08;4.93;;;2.67;;
9972;SDS011;5027;53.560;10.062;2023-09-19T02:08:40;3.80;;;2.53;;
9972;SDS011;5027;53.560;10.062;2023-09-19T02:11:07;5.13;;;2.60;;
9972;SDS011;5027;53.560;10.062;2023-09-19T02:13:33;5.17;;;2.50;;
9972;SDS011;5027;53.560;10.062;2023-09-19T02:16:00;4.70;;;3.07;;
9972;SDS011;5027;53.560;10.062;2023-09-19T02:18:28;5.33;;;2.80;;
9972;SDS011;5027;53.560;10.062;2023-09-19T02:20:56;4.80;;;2.63;;
9972;SDS011;5027;53.560;10.062;2023-09-19T02:23:24;3.70;;;2.60;;
9972;SDS011;5027;53.560;10.062;2023-09-19T02:25:52;4.50;;;2.60;;
9972;SDS011;5027;53.560;10.062;2023-09-19T02:28:20;4.87;;;3.47;;
9972;SDS011;5027;53.560;10.062;2023-09-19T02:30:50;5.00;;;3.17;;
9972;SDS011;5027;53.560;10.062;2023-09-19T02:33:16;7.60;;;3.30;;
9972;SDS011;5027;53.560;10.062;2023-09-19T02:35:44;4.63;;;2.93;;
9972;SDS011;5027;53.560;10.062;2023-09-19T02:38:11;5.27;;;3.30;;
9972;SDS011;5027;53.560;10.062;2023-09-19T02:40:38;7.90;;;3.30;;
9972;SDS011;5027;53.560;10.062;2023-09-19T02:43:06;9.13;;;3.67;;
9972;SDS011;5027;53.560;10.062;2023-09-19T02:45:34;7.33;;;3.23;;
9972;SDS011;5027;53.560;10.062;2023-09-19T02:48:01;5.30;;;3.00;;
9972;SDS011;5027;53.560;10.062;2023-09-19T02:50:28;7.13;;;3.30;;
9972;SDS011;5027;53.560;10.062;2023-09-19T02:52:55;4.60;;;3.10;;
9972;SDS011;5027;53.560;10.062;2023-09-19T02:55:22;6.37;;;3.67;;
9972;SDS011;5027;53.560;10.062;2023-09-19T02:57:49;6.63;;;3.43;;
9972;SDS011;5027;53.560;10.062;2023-09-19T03:00:19;5.07;;;3.30;;
9972;SDS011;5027;53.560;10.062;2023-09-19T03:02:49;7.30;;;3.37;;
9972;SDS011;5027;53.560;10.062;2023-09-19T03:05:16;10.37;;;3.40;;
9972;SDS011;5027;53.560;10.062;2023-09-19T03:07:44;9.07;;;3.33;;
9972;SDS011;5027;53.560;10.062;2023-09-19T03:10:13;6.93;;;3.10;;
9972;SDS011;5027;53.560;10.062;2023-09-19T03:12:42;6.40;;;3.10;;
9972;SDS011;5027;53.560;10.062;2023-09-19T03:15:09;8.13;;;3.40;;
9972;SDS011;5027;53.560;10.062;2023-09-19T03:17:36;5.47;;;3.13;;
9972;SDS011;5027;53.560;10.062;2023-09-19T03:20:03;7.30;;;3.40;;
9972;SDS011;5027;53.560;10.062;2023-09-19T03:22:34;4.10;;;2.50;;
9972;SDS011;5027;53.560;10.062;2023-09-19T03:25:01;4.80;;;2.77;;
9972;SDS011;5027;53.560;10.062;2023-09-19T03:27:29;7.43;;;2.70;;
9972;SDS011;5027;53.560;10.062;2023-09-19T03:29:57;5.40;;;2.77;;
9972;SDS011;5027;53.560;10.062;2023-09-19T03:32:24;5.03;;;2.60;;
9972;SDS011;5027;53.560;10.062;2023-09-19T03:34:51;5.13;;;3.30;;
9972;SDS011;5027;53.560;10.062;2023-09-19T03:37:18;5.70;;;2.90;;
9972;SDS011;5027;53.560;10.062;2023-09-19T03:39:45;4.67;;;2.70;;
9972;SDS011;5027;53.560;10.062;2023-09-19T03:42:12;6.50;;;3.10;;
9972;SDS011;5027;53.560;10.062;2023-09-19T03:44:39;5.67;;;2.97;;
9972;SDS011;5027;53.560;10.062;2023-09-19T03:47:06;7.57;;;2.70;;
9972;SDS011;5027;53.560;10.062;2023-09-19T03:49:33;5.40;;;2.80;;
9972;SDS011;5027;53.560;10.062;2023-09-19T03:52:00;5.40;;;2.80;;
9972;SDS011;5027;53.560;10.062;2023-09-19T03:54:27;7.30;;;2.67;;
9972;SDS011;5027;53.560;10.062;2023-09-19T03:56:54;4.40;;;2.50;;
9972;SDS011;5027;53.560;10.062;2023-09-19T03:59:20;3.93;;;2.30;;
9972;SDS011;5027;53.560;10.062;2023-09-19T04:01:47;3.97;;;2.30;;
9972;SDS011;5027;53.560;10.062;2023-09-19T04:04:14;5.17;;;2.50;;
9972;SDS011;5027;53.560;10.062;2023-09-19T04:06:41;3.83;;;2.73;;
9972;SDS011;5027;53.560;10.062;2023-09-19T04:09:08;5.13;;;2.50;;
9972;SDS011;5027;53.560;10.062;2023-09-19T04:11:37;7.37;;;3.20;;
9972;SDS011;5027;53.560;10.062;2023-09-19T04:14:04;4.67;;;2.53;;
9972;SDS011;5027;53.560;10.062;2023-09-19T04:16:31;2.97;;;2.10;;
9972;SDS011;5027;53.560;10.062;2023-09-19T04:18:58;6.90;;;2.73;;
9972;SDS011;5027;53.560;10.062;2023-09-19T04:21:25;9.13;;;3.03;;
9972;SDS011;5027;53.560;10.062;2023-09-19T04:23:53;7.30;;;2.90;;
9972;SDS011;5027;53.560;10.062;2023-09-19T04:26:19;4.93;;;2.63;;
9972;SDS011;5027;53.560;10.062;2023-09-19T04:28:46;7.33;;;2.87;;
9972;SDS011;5027;53.560;10.062;2023-09-19T04:31:13;7.27;;;3.23;;
9972;SDS011;5027;53.560;10.062;2023-09-19T04:33:40;7.47;;;2.83;;
9972;SDS011;5027;53.560;10.062;2023-09-19T04:36:09;8.93;;;3.33;;
9972;SDS011;5027;53.560;10.062;2023-09-19T04:38:56;8.93;;;3.27;;
9972;SDS011;5027;53.560;10.062;2023-09-19T04:41:22;6.77;;;3.20;;
9972;SDS011;5027;53.560;10.062;2023-09-19T04:43:50;9.80;;;2.90;;
9972;SDS011;5027;53.560;10.062;2023-09-19T04:46:17;9.27;;;2.90;;
9972;SDS011;5027;53.560;10.062;2023-09-19T04:48:44;6.57;;;2.97;;
9972;SDS011;5027;53.560;10.062;2023-09-19T04:51:11;5.90;;;2.60;;
9972;SDS011;5027;53.560;10.062;2023-09-19T04:53:38;9.23;;;2.70;;
9972;SDS011;5027;53.560;10.062;2023-09-19T04:56:05;5.60;;;2.80;;
9972;SDS011;5027;53.560;10.062;2023-09-19T04:58:34;10.10;;;2.87;;
9972;SDS011;5027;53.560;10.062;2023-09-19T05:01:00;6.50;;;2.80;;
9972;SDS011;5027;53.560;10.062;2023-09-19T05:03:28;7.20;;;3.00;;
9972;SDS011;5027;53.560;10.062;2023-09-19T05:05:55;5.57;;;2.80;;
9972;SDS011;5027;53.560;10.062;2023-09-19T05:08:22;5.67;;;3.00;;
9972;SDS011;5027;53.560;10.062;2023-09-19T05:10:49;7.73;;;3.23;;
9972;SDS011;5027;53.560;10.062;2023-09-19T05:13:16;6.00;;;2.70;;
9972;SDS011;5027;53.560;10.062;2023-09-19T05:15:43;4.83;;;2.50;;
9972;SDS011;5027;53.560;10.062;2023-09-19T05:18:10;5.80;;;2.60;;
9972;SDS011;5027;53.560;10.062;2023-09-19T05:20:37;7.97;;;3.07;;
9972;SDS011;5027;53.560;10.062;2023-09-19T05:23:05;6.97;;;3.17;;
9972;SDS011;5027;53.560;10.062;2023-09-19T05:25:38;6.77;;;3.10;;
9972;SDS011;5027;53.560;10.062;2023-09-19T05:28:07;6.67;;;3.30;;
9972;SDS011;5027;53.560;10.062;2023-09-19T05:30:35;6.00;;;2.90;;
9972;SDS011;5027;53.560;10.062;2023-09-19T05:33:02;6.23;;;3.37;;
9972;SDS011;5027;53.560;10.062;2023-09-19T05:35:31;7.73;;;3.10;;
9972;SDS011;5027;53.560;10.062;2023-09-19T05:37:58;7.07;;;2.97;;
9972;SDS011;5027;53.560;10.062;2023-09-19T05:40:25;7.97;;;3.17;;
9972;SDS011;5027;53.560;10.062;2023-09-19T05:42:52;6.33;;;3.07;;
9972;SDS011;5027;53.560;10.062;2023-09-19T05:45:19;5.43;;;2.73;;
9972;SDS011;5027;53.560;10.062;2023-09-19T05:47:49;8.50;;;3.40;;
9972;SDS011;5027;53.560;10.062;2023-09-19T05:50:17;7.73;;;3.20;;
9972;SDS011;5027;53.560;10.062;2023-09-19T05:52:51;8.23;;;3.33;;
9972;SDS011;5027;53.560;10.062;2023-09-19T05:55:18;6.03;;;2.73;;
9972;SDS011;5027;53.560;10.062;2023-09-19T05:57:53;6.47;;;3.40;;
9972;SDS011;5027;53.560;10.062;2023-09-19T06:00:23;8.50;;;3.03;;
9972;SDS011;5027;53.560;10.062;2023-09-19T06:02:54;7.30;;;3.23;;
9972;SDS011;5027;53.560;10.062;2023-09-19T06:05:23;4.93;;;3.07;;
9972;SDS011;5027;53.560;10.062;2023-09-19T06:07:52;12.03;;;3.50;;
9972;SDS011;5027;53.560;10.062;2023-09-19T06:10:20;8.30;;;3.37;;
9972;SDS011;5027;53.560;10.062;2023-09-19T06:12:47;8.70;;;3.30;;
9972;SDS011;5027;53.560;10.062;2023-09-19T06:15:14;5.60;;;3.10;;
9972;SDS011;5027;53.560;10.062;2023-09-19T06:17:54;7.07;;;2.70;;
9972;SDS011;5027;53.560;10.062;2023-09-19T06:20:22;8.37;;;3.43;;
9972;SDS011;5027;53.560;10.062;2023-09-19T06:22:52;6.70;;;3.37;;
9972;SDS011;5027;53.560;10.062;2023-09-19T06:25:19;6.60;;;2.73;;
9972;SDS011;5027;53.560;10.062;2023-09-19T06:30:14;9.43;;;3.40;;
9972;SDS011;5027;53.560;10.062;2023-09-19T06:32:41;10.50;;;3.57;;
9972;SDS011;5027;53.560;10.062;2023-09-19T06:35:11;7.90;;;3.10;;
9972;SDS011;5027;53.560;10.062;2023-09-19T06:37:39;7.00;;;3.17;;
9972;SDS011;5027;53.560;10.062;2023-09-19T06:42:43;6.93;;;3.10;;
9972;SDS011;5027;53.560;10.062;2023-09-19T06:45:14;5.83;;;2.90;;
9972;SDS011;5027;53.560;10.062;2023-09-19T06:47:48;7.33;;;3.50;;
9972;SDS011;5027;53.560;10.062;2023-09-19T06:50:17;8.77;;;3.17;;
9972;SDS011;5027;53.560;10.062;2023-09-19T06:52:46;8.27;;;3.13;;
9972;SDS011;5027;53.560;10.062;2023-09-19T06:55:16;8.83;;;3.23;;
9972;SDS011;5027;53.560;10.062;2023-09-19T06:57:46;11.47;;;3.53;;
9972;SDS011;5027;53.560;10.062;2023-09-19T07:00:13;11.23;;;3.40;;
9972;SDS011;5027;53.560;10.062;2023-09-19T07:03:09;7.57;;;3.43;;
9972;SDS011;5027;53.560;10.062;2023-09-19T07:05:38;6.17;;;2.83;;
9972;SDS011;5027;53.560;10.062;2023-09-19T07:08:11;9.70;;;3.67;;
9972;SDS011;5027;53.560;10.062;2023-09-19T07:10:39;11.50;;;3.77;;
9972;SDS011;5027;53.560;10.062;2023-09-19T07:13:07;10.80;;;3.33;;
9972;SDS011;5027;53.560;10.062;2023-09-19T07:15:38;8.17;;;3.13;;
9972;SDS011;5027;53.560;10.062;2023-09-19T07:18:07;9.40;;;3.37;;
9972;SDS011;5027;53.560;10.062;2023-09-19T07:20:37;8.17;;;3.23;;
9972;SDS011;5027;53.560;10.062;2023-09-19T07:23:04;10.30;;;3.53;;
9972;SDS011;5027;53.560;10.062;2023-09-19T07:25:32;8.17;;;3.57;;
9972;SDS011;5027;53.560;10.062;2023-09-19T07:27:59;10.60;;;3.57;;
9972;SDS011;5027;53.560;10.062;2023-09-19T07:30:27;7.23;;;3.17;;
9972;SDS011;5027;53.560;10.062;2023-09-19T07:32:54;9.90;;;3.97;;
9972;SDS011;5027;53.560;10.062;2023-09-19T07:35:21;10.37;;;3.27;;
9972;SDS011;5027;53.560;10.062;2023-09-19T07:37:48;7.67;;;3.37;;
9972;SDS011;5027;53.560;10.062;2023-09-19T07:40:17;9.87;;;3.67;;
9972;SDS011;5027;53.560;10.062;2023-09-19T07:42:45;7.80;;;3.57;;
9972;SDS011;5027;53.560;10.062;2023-09-19T07:45:13;7.30;;;3.20;;
9972;SDS011;5027;53.560;10.062;2023-09-19T07:47:43;8.37;;;3.33;;
9972;SDS011;5027;53.560;10.062;2023-09-19T07:50:11;8.43;;;3.67;;
9972;SDS011;5027;53.560;10.062;2023-09-19T07:52:39;6.43;;;2.90;;
9972;SDS011;5027;53.560;10.062;2023-09-19T07:55:06;10.17;;;3.80;;
9972;SDS011;5027;53.560;10.062;2023-09-19T07:57:37;10.60;;;3.43;;
9972;SDS011;5027;53.560;10.062;2023-09-19T08:00:04;10.20;;;3.83;;
9972;SDS011;5027;53.560;10.062;2023-09-19T08:02:43;9.83;;;4.30;;
9972;SDS011;5027;53.560;10.062;2023-09-19T08:05:11;9.10;;;3.60;;
9972;SDS011;5027;53.560;10.062;2023-09-19T08:07:42;10.17;;;3.93;;
9972;SDS011;5027;53.560;10.062;2023-09-19T08:10:11;11.27;;;3.43;;
9972;SDS011;5027;53.560;10.062;2023-09-19T08:12:42;10.67;;;3.70;;
9972;SDS011;5027;53.560;10.062;2023-09-19T08:15:17;8.47;;;2.83;;
9972;SDS011;5027;53.560;10.062;2023-09-19T08:17:46;12.20;;;3.90;;
9972;SDS011;5027;53.560;10.062;2023-09-19T08:20:14;7.80;;;3.37;;
9972;SDS011;5027;53.560;10.062;2023-09-19T08:22:52;10.13;;;3.70;;
9972;SDS011;5027;53.560;10.062;2023-09-19T08:25:21;8.23;;;3.30;;
9972;SDS011;5027;53.560;10.062;2023-09-19T08:27:49;10.87;;;3.83;;
9972;SDS011;5027;53.560;10.062;2023-09-19T08:30:17;10.67;;;3.77;;
9972;SDS011;5027;53.560;10.062;2023-09-19T08:32:51;8.30;;;4.03;;
9972;SDS011;5027;53.560;10.062;2023-09-19T08:35:18;11.13;;;3.80;;
9972;SDS011;5027;53.560;10.062;2023-09-19T08:37:46;7.83;;;3.20;;
9972;SDS011;5027;53.560;10.062;2023-09-19T08:40:15;9.77;;;3.93;;
9972;SDS011;5027;53.560;10.062;2023-09-19T08:42:49;8.70;;;3.77;;
9972;SDS011;5027;53.560;10.062;2023-09-19T08:45:16;10.50;;;3.73;;
9972;SDS011;5027;53.560;10.062;2023-09-19T08:47:47;7.60;;;3.40;;
9972;SDS011;5027;53.560;10.062;2023-09-19T08:50:26;8.73;;;3.70;;
9972;SDS011;5027;53.560;10.062;2023-09-19T08:53:00;10.97;;;3.73;;
9972;SDS011;5027;53.560;10.062;2023-09-19T08:55:28;8.43;;;4.03;;
9972;SDS011;5027;53.560;10.062;2023-09-19T08:58:03;9.57;;;4.10;;
9972;SDS011;5027;53.560;10.062;2023-09-19T09:00:30;10.20;;;3.67;;
9972;SDS011;5027;53.560;10.062;2023-09-19T09:02:58;11.87;;;4.10;;
9972;SDS011;5027;53.560;10.062;2023-09-19T09:05:27;8.63;;;3.80;;
9972;SDS011;5027;53.560;10.062;2023-09-19T09:07:54;9.77;;;3.80;;
9972;SDS011;5027;53.560;10.062;2023-09-19T09:10:23;8.93;;;4.03;;
9972;SDS011;5027;53.560;10.062;2023-09-19T09:12:53;9.40;;;3.80;;
9972;SDS011;5027;53.560;10.062;2023-09-19T09:15:23;7.93;;;3.73;;
9972;SDS011;5027;53.560;10.062;2023-09-19T09:17:51;8.27;;;3.47;;
9972;SDS011;5027;53.560;10.062;2023-09-19T09:20:21;17.23;;;3.97;;
9972;SDS011;5027;53.560;10.062;2023-09-19T09:22:55;6.63;;;3.20;;
9972;SDS011;5027;53.560;10.062;2023-09-19T09:28:29;7.20;;;2.87;;
9972;SDS011;5027;53.560;10.062;2023-09-19T09:31:00;13.07;;;4.30;;
9972;SDS011;5027;53.560;10.062;2023-09-19T09:33:34;10.20;;;3.67;;
9972;SDS011;5027;53.560;10.062;2023-09-19T09:36:02;9.53;;;3.43;;
9972;SDS011;5027;53.560;10.062;2023-09-19T09:38:42;10.03;;;3.77;;
9972;SDS011;5027;53.560;10.062;2023-09-19T09:41:10;9.77;;;3.70;;
9972;SDS011;5027;53.560;10.062;2023-09-19T09:43:41;12.40;;;4.03;;
9972;SDS011;5027;53.560;10.062;2023-09-19T09:49:02;8.73;;;3.63;;
9972;SDS011;5027;53.560;10.062;2023-09-19T09:52:01;10.13;;;3.90;;
9972;SDS011;5027;53.560;10.062;2023-09-19T09:54:59;8.23;;;3.50;;
9972;SDS011;5027;53.560;10.062;2023-09-19T09:57:31;9.60;;;4.10;;
9972;SDS011;5027;53.560;10.062;2023-09-19T10:00:00;12.27;;;4.30;;
9972;SDS011;5027;53.560;10.062;2023-09-19T10:02:39;6.97;;;3.23;;
9972;SDS011;5027;53.560;10.062;2023-09-19T10:05:11;7.83;;;3.17;;
9972;SDS011;5027;53.560;10.062;2023-09-19T10:07:50;8.63;;;3.27;;
9972;SDS011;5027;53.560;10.062;2023-09-19T10:10:30;8.27;;;3.37;;
9972;SDS011;5027;53.560;10.062;2023-09-19T10:13:05;11.77;;;3.80;;
9972;SDS011;5027;53.560;10.062;2023-09-19T10:15:34;6.57;;;3.30;;
9972;SDS011;5027;53.560;10.062;2023-09-19T10:18:05;7.83;;;3.60;;
9972;SDS011;5027;53.560;10.062;2023-09-19T10:20:35;11.83;;;3.87;;
9972;SDS011;5027;53.560;10.062;2023-09-19T10:23:09;3.77;;;2.60;;
9972;SDS011;5027;53.560;10.062;2023-09-19T10:25:39;10.90;;;3.13;;
9972;SDS011;5027;53.560;10.062;2023-09-19T10:28:08;6.53;;;3.17;;
9972;SDS011;5027;53.560;10.062;2023-09-19T10:30:45;10.80;;;3.30;;
9972;SDS011;5027;53.560;10.062;2023-09-19T10:33:14;9.10;;;3.20;;
9972;SDS011;5027;53.560;10.062;2023-09-19T10:35:46;7.07;;;3.13;;
9972;SDS011;5027;53.560;10.062;2023-09-19T10:38:18;8.43;;;3.70;;
9972;SDS011;5027;53.560;10.062;2023-09-19T10:40:49;10.80;;;3.50;;
9972;SDS011;5027;53.560;10.062;2023-09-19T10:43:19;5.80;;;3.27;;
9972;SDS011;5027;53.560;10.062;2023-09-19T10:45:50;9.20;;;3.30;;
9972;SDS011;5027;53.560;10.062;2023-09-19T10:48:19;7.37;;;3.10;;
9972;SDS011;5027;53.560;10.062;2023-09-19T10:50:48;7.50;;;3.50;;
9972;SDS011;5027;53.560;10.062;2023-09-19T10:53:45;11.53;;;3.43;;
9972;SDS011;5027;53.560;10.062;2023-09-19T10:56:29;8.20;;;3.30;;
9972;SDS011;5027;53.560;10.062;2023-09-19T10:59:09;8.17;;;3.70;;
9972;SDS011;5027;53.560;10.062;2023-09-19T11:09:48;13.40;;;3.27;;
9972;SDS011;5027;53.560;10.062;2023-09-19T11:14:55;8.20;;;3.50;;
9972;SDS011;5027;53.560;10.062;2023-09-19T11:17:32;7.10;;;3.17;;
9972;SDS011;5027;53.560;10.062;2023-09-19T11:30:33;9.53;;;3.67;;
9972;SDS011;5027;53.560;10.062;2023-09-19T11:35:58;8.43;;;3.13;;
9972;SDS011;5027;53.560;10.062;2023-09-19T11:43:48;7.37;;;3.07;;
9972;SDS011;5027;53.560;10.062;2023-09-19T11:46:21;11.23;;;3.60;;
9972;SDS011;5027;53.560;10.062;2023-09-19T11:48:48;7.10;;;3.50;;
9972;SDS011;5027;53.560;10.062;2023-09-19T11:51:23;9.93;;;3.20;;
9972;SDS011;5027;53.560;10.062;2023-09-19T11:53:55;8.67;;;3.10;;
9972;SDS011;5027;53.560;10.062;2023-09-19T11:56:26;9.53;;;3.83;;
9972;SDS011;5027;53.560;10.062;2023-09-19T11:58:58;10.50;;;4.07;;
9972;SDS011;5027;53.560;10.062;2023-09-19T12:01:30;17.57;;;3.50;;
9972;SDS011;5027;53.560;10.062;2023-09-19T12:04:01;11.83;;;3.87;;
9972;SDS011;5027;53.560;10.062;2023-09-19T12:06:30;5.47;;;3.10;;
9972;SDS011;5027;53.560;10.062;2023-09-19T12:08:58;7.57;;;3.20;;
9972;SDS011;5027;53.560;10.062;2023-09-19T12:11:30;10.53;;;4.33;;
9972;SDS011;5027;53.560;10.062;2023-09-19T12:14:00;6.80;;;3.33;;
9972;SDS011;5027;53.560;10.062;2023-09-19T12:16:28;7.53;;;3.37;;
9972;SDS011;5027;53.560;10.062;2023-09-19T12:19:17;9.07;;;3.20;;
9972;SDS011;5027;53.560;10.062;2023-09-19T12:21:58;8.40;;;3.40;;
9972;SDS011;5027;53.560;10.062;2023-09-19T12:24:30;8.57;;;3.57;;
9972;SDS011;5027;53.560;10.062;2023-09-19T12:27:05;9.17;;;3.30;;
9972;SDS011;5027;53.560;10.062;2023-09-19T12:29:42;9.60;;;3.37;;
9972;SDS011;5027;53.560;10.062;2023-09-19T12:32:10;10.43;;;3.77;;
9972;SDS011;5027;53.560;10.062;2023-09-19T12:34:37;6.37;;;3.73;;
9972;SDS011;5027;53.560;10.062;2023-09-19T12:39:48;6.93;;;3.37;;
9972;SDS011;5027;53.560;10.062;2023-09-19T12:42:18;10.67;;;3.80;;
9972;SDS011;5027;53.560;10.062;2023-09-19T12:44:49;7.63;;;3.33;;
9972;SDS011;5027;53.560;10.062;2023-09-19T12:47:21;10.57;;;3.70;;
9972;SDS011;5027;53.560;10.062;2023-09-19T12:52:49;10.23;;;3.63;;
9972;SDS011;5027;53.560;10.062;2023-09-19T12:55:29;10.70;;;3.50;;
9972;SDS011;5027;53.560;10.062;2023-09-19T12:58:03;7.60;;;3.17;;
9972;SDS011;5027;53.560;10.062;2023-09-19T13:00:40;9.63;;;3.63;;
9972;SDS011;5027;53.560;10.062;2023-09-19T13:03:15;9.00;;;4.50;;
9972;SDS011;5027;53.560;10.062;2023-09-19T13:06:02;8.93;;;3.80;;
9972;SDS011;5027;53.560;10.062;2023-09-19T13:08:39;10.90;;;3.93;;
9972;SDS011;5027;53.560;10.062;2023-09-19T13:11:11;8.43;;;4.07;;
9972;SDS011;5027;53.560;10.062;2023-09-19T13:16:16;7.33;;;3.47;;
9972;SDS011;5027;53.560;10.062;2023-09-19T13:18:49;10.27;;;3.77;;
9972;SDS011;5027;53.560;10.062;2023-09-19T13:21:30;7.47;;;4.00;;
9972;SDS011;5027;53.560;10.062;2023-09-19T13:24:22;12.97;;;3.80;;
9972;SDS011;5027;53.560;10.062;2023-09-19T13:26:53;15.90;;;4.30;;
9972;SDS011;5027;53.560;10.062;2023-09-19T13:29:22;9.23;;;3.60;;
9972;SDS011;5027;53.560;10.062;2023-09-19T13:31:52;10.03;;;3.87;;
9972;SDS011;5027;53.560;10.062;2023-09-19T13:34:22;11.83;;;3.70;;
9972;SDS011;5027;53.560;10.062;2023-09-19T13:36:49;9.33;;;4.30;;
9972;SDS011;5027;53.560;10.062;2023-09-19T13:39:16;11.40;;;3.77;;
9972;SDS011;5027;53.560;10.062;2023-09-19T13:41:47;7.73;;;3.83;;
9972;SDS011;5027;53.560;10.062;2023-09-19T13:44:14;9.50;;;3.70;;
9972;SDS011;5027;53.560;10.062;2023-09-19T13:46:42;7.30;;;3.67;;
9972;SDS011;5027;53.560;10.062;2023-09-19T13:49:12;8.00;;;3.70;;
9972;SDS011;5027;53.560;10.062;2023-09-19T13:51:41;8.93;;;3.77;;
9972;SDS011;5027;53.560;10.062;2023-09-19T13:54:10;12.87;;;3.67;;
9972;SDS011;5027;53.560;10.062;2023-09-19T13:56:38;8.77;;;3.63;;
9972;SDS011;5027;53.560;10.062;2023-09-19T13:59:05;7.30;;;3.53;;
9972;SDS011;5027;53.560;10.062;2023-09-19T14:01:32;8.47;;;3.80;;
9972;SDS011;5027;53.560;10.062;2023-09-19T14:03:59;9.43;;;4.17;;
9972;SDS011;5027;53.560;10.062;2023-09-19T14:06:26;5.83;;;3.60;;
9972;SDS011;5027;53.560;10.062;2023-09-19T14:08:53;9.20;;;3.63;;
9972;SDS011;5027;53.560;10.062;2023-09-19T14:11:19;8.00;;;3.07;;
9972;SDS011;5027;53.560;10.062;2023-09-19T14:13:46;10.67;;;3.33;;
9972;SDS011;5027;53.560;10.062;2023-09-19T14:16:15;9.17;;;3.70;;
9972;SDS011;5027;53.560;10.062;2023-09-19T14:18:44;8.63;;;3.43;;
9972;SDS011;5027;53.560;10.062;2023-09-19T14:21:12;8.33;;;3.53;;
9972;SDS011;5027;53.560;10.062;2023-09-19T14:23:40;12.70;;;3.70;;
9972;SDS011;5027;53.560;10.062;2023-09-19T14:26:11;8.60;;;3.27;;
9972;SDS011;5027;53.560;10.062;2023-09-19T14:28:37;11.43;;;4.27;;
9972;SDS011;5027;53.560;10.062;2023-09-19T14:31:06;9.27;;;3.33;;
9972;SDS011;5027;53.560;10.062;2023-09-19T14:33:34;8.00;;;3.20;;
9972;SDS011;5027;53.560;10.062;2023-09-19T14:36:04;7.97;;;3.97;;
9972;SDS011;5027;53.560;10.062;2023-09-19T14:38:37;9.00;;;3.33;;
9972;SDS011;5027;53.560;10.062;2023-09-19T14:41:05;7.87;;;3.43;;
9972;SDS011;5027;53.560;10.062;2023-09-19T14:43:32;10.40;;;3.90;;
9972;SDS011;5027;53.560;10.062;2023-09-19T14:46:05;7.97;;;3.37;;
9972;SDS011;5027;53.560;10.062;2023-09-19T14:48:38;10.70;;;3.90;;
9972;SDS011;5027;53.560;10.062;2023-09-19T14:51:06;7.43;;;3.43;;
9972;SDS011;5027;53.560;10.062;2023-09-19T14:53:38;9.40;;;4.10;;
9972;SDS011;5027;53.560;10.062;2023-09-19T14:56:11;7.60;;;3.60;;
9972;SDS011;5027;53.560;10.062;2023-09-19T14:58:39;10.73;;;3.60;;
9972;SDS011;5027;53.560;10.062;2023-09-19T15:01:07;10.10;;;3.07;;
9972;SDS011;5027;53.560;10.062;2023-09-19T15:03:41;9.13;;;3.50;;
9972;SDS011;5027;53.560;10.062;2023-09-19T15:06:09;9.30;;;4.13;;
9972;SDS011;5027;53.560;10.062;2023-09-19T15:08:41;10.23;;;3.77;;
9972;SDS011;5027;53.560;10.062;2023-09-19T15:11:12;8.93;;;3.93;;
9972;SDS011;5027;53.560;10.062;2023-09-19T15:13:46;9.10;;;3.57;;
9972;SDS011;5027;53.560;10.062;2023-09-19T15:16:14;9.47;;;3.50;;
9972;SDS011;5027;53.560;10.062;2023-09-19T15:18:41;11.30;;;3.87;;
9972;SDS011;5027;53.560;10.062;2023-09-19T15:21:09;9.27;;;3.20;;
9972;SDS011;5027;53.560;10.062;2023-09-19T15:23:39;10.13;;;4.00;;
9972;SDS011;5027;53.560;10.062;2023-09-19T15:26:07;10.20;;;3.70;;
9972;SDS011;5027;53.560;10.062;2023-09-19T15:28:36;8.60;;;4.33;;
9972;SDS011;5027;53.560;10.062;2023-09-19T15:31:10;12.27;;;3.17;;
9972;SDS011;5027;53.560;10.062;2023-09-19T15:33:38;8.73;;;3.70;;
9972;SDS011;5027;53.560;10.062;2023-09-19T15:36:12;10.43;;;3.67;;
9972;SDS011;5027;53.560;10.062;2023-09-19T15:41:27;10.23;;;3.53;;
9972;SDS011;5027;53.560;10.062;2023-09-19T15:44:01;7.93;;;3.90;;
9972;SDS011;5027;53.560;10.062;2023-09-19T15:46:30;11.93;;;7.63;;
9972;SDS011;5027;53.560;10.062;2023-09-19T15:48:59;9.40;;;4.10;;
9972;SDS011;5027;53.560;10.062;2023-09-19T15:51:27;8.80;;;4.13;;
9972;SDS011;5027;53.560;10.062;2023-09-19T15:53:54;8.67;;;3.60;;
9972;SDS011;5027;53.560;10.062;2023-09-19T15:56:23;10.03;;;3.80;;
9972;SDS011;5027;53.560;10.062;2023-09-19T15:58:50;9.53;;;3.87;;
9972;SDS011;5027;53.560;10.062;2023-09-19T16:01:18;11.37;;;3.93;;
9972;SDS011;5027;53.560;10.062;2023-09-19T16:03:46;8.77;;;4.23;;
9972;SDS011;5027;53.560;10.062;2023-09-19T16:06:23;9.77;;;4.30;;
9972;SDS011;5027;53.560;10.062;2023-09-19T16:08:52;11.93;;;3.90;;
9972;SDS011;5027;53.560;10.062;2023-09-19T16:11:25;10.80;;;3.93;;
9972;SDS011;5027;53.560;10.062;2023-09-19T16:13:53;8.07;;;3.77;;
9972;SDS011;5027;53.560;10.062;2023-09-19T16:16:20;11.00;;;3.50;;
9972;SDS011;5027;53.560;10.062;2023-09-19T16:18:52;9.60;;;3.50;;
9972;SDS011;5027;53.560;10.062;2023-09-19T16:21:24;7.50;;;3.73;;